Time;durP1;ratioP1;P1;durP2;ratioP2;P2;SDS_P1;SDS_P2;PMS_P1;PMS_P2;Temp;Humidity;BMP_temperature;BMP_pressure;BME280_temperature;BME280_humidity;BME280_pressure;Samples;Min_cycle;Max_cycle;Signal;HPM_P1;HPM_P2
2022/12/18 00:01:31;;;;;;;84.43;37.53;;;;;;;-7.05;100.00;102825.47;5052172;28;20074;-86
2022/12/18 00:03:57;;;;;;;79.32;34.15;;;;;;;-6.74;100.00;102878.69;5053534;28;20143;-86
2022/12/18 00:06:24;;;;;;;80.45;35.15;;;;;;;-6.78;100.00;102865.94;5053389;28;20029;-85
2022/12/18 00:08:50;;;;;;;84.00;37.53;;;;;;;-6.74;100.00;102851.03;5053513;28;20024;-85
2022/12/18 00:11:18;;;;;;;76.95;35.67;;;;;;;-6.72;100.00;102856.97;5053142;28;20464;-84
2022/12/18 00:13:44;;;;;;;76.93;33.67;;;;;;;-6.75;100.00;102861.91;5053039;28;20028;-86
2022/12/18 00:16:15;;;;;;;74.63;38.20;;;;;;;-6.71;100.00;102855.31;5053310;28;20191;-84
2022/12/18 00:18:41;;;;;;;73.90;35.53;;;;;;;-6.72;100.00;102841.06;5053349;28;20025;-86
2022/12/18 00:21:09;;;;;;;78.07;35.88;;;;;;;-6.93;100.00;102809.25;5053131;28;20056;-87
2022/12/18 00:23:35;;;;;;;81.78;34.25;;;;;;;-7.01;100.00;102803.06;5053076;28;20032;-86
2022/12/18 00:26:03;;;;;;;80.43;36.55;;;;;;;-6.82;100.00;102844.00;5053002;28;20388;-76
2022/12/18 00:28:29;;;;;;;74.72;34.03;;;;;;;-6.89;100.00;102850.41;5052846;28;20032;-77
2022/12/18 00:31:08;;;;;;;72.35;32.20;;;;;;;-6.94;100.00;102847.72;5053070;28;20459;-73
2022/12/18 00:33:35;;;;;;;70.30;33.20;;;;;;;-7.07;100.00;102819.56;5052841;28;20397;-74
2022/12/18 00:36:12;;;;;;;76.05;31.88;;;;;;;-7.03;100.00;102837.28;5051965;28;20064;-74
2022/12/18 00:38:38;;;;;;;69.20;33.08;;;;;;;-7.09;100.00;102832.00;5052968;28;20111;-73
2022/12/18 00:41:04;;;;;;;70.22;33.88;;;;;;;-7.27;100.00;102818.72;5051589;28;20124;-75
2022/12/18 00:43:29;;;;;;;73.00;34.25;;;;;;;-7.33;100.00;102810.94;5053146;28;20089;-76
2022/12/18 00:45:55;;;;;;;75.13;35.47;;;;;;;-7.22;100.00;102835.66;5052968;28;20029;-73
2022/12/18 00:48:20;;;;;;;69.55;33.90;;;;;;;-7.25;100.00;102830.53;5052925;28;20025;-74
2022/12/18 00:50:48;;;;;;;68.55;33.58;;;;;;;-7.27;100.00;102826.25;5053023;28;20541;-75
2022/12/18 00:53:13;;;;;;;65.15;30.77;;;;;;;-7.31;100.00;102827.75;5052824;28;20025;-74
2022/12/18 00:55:40;;;;;;;74.18;34.63;;;;;;;-7.32;100.00;102822.69;5052589;28;20456;-75
2022/12/18 00:58:05;;;;;;;69.28;31.83;;;;;;;-7.35;100.00;102822.56;5052749;28;20033;-78
2022/12/18 01:00:30;;;;;;;68.43;31.45;;;;;;;-7.36;100.00;102829.22;5053053;28;20127;-76
2022/12/18 01:02:55;;;;;;;65.18;28.95;;;;;;;-7.37;100.00;102822.50;5053092;28;20064;-74
2022/12/18 01:05:21;;;;;;;70.38;31.65;;;;;;;-7.48;100.00;102800.22;5053390;28;20487;-78
2022/12/18 01:07:46;;;;;;;68.05;31.00;;;;;;;-7.37;100.00;102826.66;5057226;28;20029;-75
2022/12/18 01:10:12;;;;;;;70.78;32.50;;;;;;;-7.36;100.00;102845.94;5056894;28;20104;-74
2022/12/18 01:12:38;;;;;;;68.72;32.58;;;;;;;-7.36;100.00;102854.31;5056601;28;20036;-86
2022/12/18 01:15:06;;;;;;;72.28;33.80;;;;;;;-7.37;100.00;102859.28;5056839;28;20357;-87
2022/12/18 01:17:31;;;;;;;71.47;32.75;;;;;;;-7.48;100.00;102851.25;5056692;28;20036;-87
2022/12/18 01:19:57;;;;;;;68.82;34.08;;;;;;;-7.45;100.00;102860.59;5056601;28;20045;-87
2022/12/18 01:22:22;;;;;;;63.47;30.52;;;;;;;-7.49;100.00;102862.09;5056757;28;20032;-84
2022/12/18 01:24:47;;;;;;;70.43;34.42;;;;;;;-7.51;100.00;102861.19;5056605;28;20058;-87
2022/12/18 01:27:13;;;;;;;68.57;35.13;;;;;;;-7.56;100.00;102848.44;5056460;28;20119;-83
2022/12/18 01:29:38;;;;;;;67.93;35.45;;;;;;;-7.69;100.00;102826.09;5056843;28;20032;-80
2022/12/18 01:32:04;;;;;;;67.00;33.85;;;;;;;-7.54;100.00;102859.41;5056717;28;20104;-81
2022/12/18 01:34:29;;;;;;;68.35;33.50;;;;;;;-7.58;100.00;102844.97;5056695;28;20041;-86
2022/12/18 01:36:54;;;;;;;67.82;34.08;;;;;;;-7.59;100.00;102838.25;5056346;28;20424;-83
2022/12/18 01:39:20;;;;;;;69.15;32.80;;;;;;;-7.57;100.00;102828.28;5056472;28;20029;-86
2022/12/18 01:42:04;;;;;;;67.47;35.40;;;;;;;-7.49;100.00;102839.50;5056151;28;20522;-88
2022/12/18 01:44:47;;;;;;;71.35;34.63;;;;;;;-7.46;100.00;102837.16;5056214;28;20024;-87
2022/12/18 01:47:27;;;;;;;68.93;33.13;;;;;;;-7.45;100.00;102833.00;5056334;28;20039;-87
2022/12/18 01:49:53;;;;;;;66.32;33.80;;;;;;;-7.62;100.00;102814.69;5056200;28;20484;-87
2022/12/18 01:52:20;;;;;;;62.50;32.13;;;;;;;-7.55;100.00;102836.75;5056190;28;20029;-86
2022/12/18 01:54:47;;;;;;;65.55;31.50;;;;;;;-7.74;100.00;102807.50;5056014;28;20052;-86
2022/12/18 01:57:13;;;;;;;66.85;30.50;;;;;;;-7.73;100.00;102818.41;5056089;28;20036;-86
2022/12/18 01:59:40;;;;;;;66.93;33.72;;;;;;;-7.77;100.00;102817.38;5056244;28;20017;-86
2022/12/18 02:02:07;;;;;;;65.45;30.02;;;;;;;-7.70;100.00;102836.06;5056105;28;20029;-86
2022/12/18 02:04:32;;;;;;;72.53;34.97;;;;;;;-7.82;100.00;102817.19;5056100;28;20048;-87
2022/12/18 02:07:19;;;;;;;64.70;33.40;;;;;;;-7.70;100.00;102836.94;5055754;28;20021;-88
2022/12/18 02:09:54;;;;;;;63.72;32.15;;;;;;;-7.74;100.00;102832.59;5055941;28;20037;-88
2022/12/18 02:12:24;;;;;;;60.35;30.25;;;;;;;-7.80;100.00;102818.13;5055806;28;20029;-88
2022/12/18 02:15:02;;;;;;;63.38;31.00;;;;;;;-7.78;100.00;102822.34;5055653;28;20360;-87
2022/12/18 02:17:47;;;;;;;59.78;30.23;;;;;;;-7.75;100.00;102833.38;5055063;28;20483;-85
2022/12/18 02:20:28;;;;;;;57.83;28.95;;;;;;;-7.77;100.00;102819.88;5055466;28;20511;-88
2022/12/18 02:23:19;;;;;;;60.55;29.77;;;;;;;-7.77;100.00;102826.56;5055830;28;20033;-88
2022/12/18 02:26:06;;;;;;;62.97;31.08;;;;;;;-7.78;100.00;102819.81;5055716;28;20143;-86
2022/12/18 02:28:38;;;;;;;61.60;28.95;;;;;;;-8.06;100.00;102796.06;5054240;28;20024;-87
2022/12/18 02:31:07;;;;;;;58.20;29.15;;;;;;;-7.90;100.00;102828.53;5054598;28;20382;-85
2022/12/18 02:33:35;;;;;;;63.25;31.67;;;;;;;-7.88;100.00;102836.13;5055528;28;20372;-87
2022/12/18 02:36:02;;;;;;;57.42;29.17;;;;;;;-7.90;100.00;102838.56;5055759;28;20025;-88
2022/12/18 02:38:29;;;;;;;59.45;32.08;;;;;;;-7.91;100.00;102836.00;5055558;28;20017;-88
2022/12/18 02:40:56;;;;;;;59.08;31.73;;;;;;;-7.95;100.00;102824.13;5055120;28;20024;-88
2022/12/18 02:43:21;;;;;;;62.08;30.08;;;;;;;-7.97;100.00;102829.03;5055295;28;20025;-87
2022/12/18 02:45:51;;;;;;;53.53;27.02;;;;;;;-7.98;100.00;102824.81;5055249;28;20078;-88
2022/12/18 02:48:20;;;;;;;56.72;29.20;;;;;;;-8.09;100.00;102806.78;5055210;28;20021;-88
2022/12/18 02:51:18;;;;;;;60.15;31.30;;;;;;;-8.22;100.00;102784.47;5055176;28;20025;-87
2022/12/18 02:53:50;;;;;;;58.70;30.05;;;;;;;-8.09;100.00;102813.47;5055032;28;20025;-88
2022/12/18 02:56:28;;;;;;;54.47;28.45;;;;;;;-8.24;100.00;102780.19;5055159;28;20021;-88
2022/12/18 02:58:56;;;;;;;54.95;26.17;;;;;;;-8.04;100.00;102806.16;5054812;28;20020;-88
2022/12/18 03:01:30;;;;;;;55.08;28.27;;;;;;;-8.05;100.00;102810.31;5054745;28;20515;-85
2022/12/18 03:04:01;;;;;;;55.33;27.73;;;;;;;-8.24;100.00;102782.72;5054761;28;20017;-83
2022/12/18 03:06:28;;;;;;;54.85;27.20;;;;;;;-8.14;100.00;102805.75;5054918;28;20028;-87
2022/12/18 03:08:59;;;;;;;57.92;28.25;;;;;;;-8.12;100.00;102810.81;5054928;28;20013;-85
2022/12/18 03:14:16;;;;;;;50.38;28.15;;;;;;;-8.19;100.00;102793.78;5054613;28;20036;-85
2022/12/18 03:16:43;;;;;;;54.10;25.52;;;;;;;-8.22;100.00;102791.16;5054253;28;20036;-87
2022/12/18 03:19:13;;;;;;;56.40;29.75;;;;;;;-8.23;100.00;102789.44;5054313;28;20071;-73
2022/12/18 03:21:45;;;;;;;55.90;27.10;;;;;;;-8.26;100.00;102786.75;5054245;28;20114;-71
2022/12/18 03:24:11;;;;;;;;;;;;;;;-8.23;100.00;102791.94;5053807;28;20116;-73
2022/12/18 03:26:40;;;;;;;50.17;26.27;;;;;;;-8.29;100.00;102792.50;5054376;28;20011;-73
2022/12/18 03:29:22;;;;;;;49.05;25.83;;;;;;;-8.34;100.00;102783.94;5054116;28;20037;-73
2022/12/18 03:31:55;;;;;;;53.03;27.15;;;;;;;-8.30;100.00;102794.94;5054446;28;20021;-73
2022/12/18 03:34:31;;;;;;;48.08;25.83;;;;;;;-8.38;100.00;102779.59;5054171;28;20487;-73
2022/12/18 03:36:57;;;;;;;50.83;25.30;;;;;;;-8.36;100.00;102772.13;5054326;28;20533;-73
2022/12/18 03:39:23;;;;;;;51.10;26.80;;;;;;;-8.28;100.00;102785.84;5054140;28;20021;-73
2022/12/18 03:42:00;;;;;;;47.10;25.80;;;;;;;-8.31;100.00;102786.56;5053981;28;20362;-79
2022/12/18 03:44:54;;;;;;;51.75;27.08;;;;;;;-8.22;100.00;102786.13;5053777;28;20403;-79
2022/12/18 03:47:28;;;;;;;53.78;27.27;;;;;;;-8.18;100.00;102785.47;5053964;28;20025;-73
2022/12/18 03:50:10;;;;;;;48.92;24.70;;;;;;;-8.17;100.00;102774.66;5053948;28;20383;-73
2022/12/18 03:52:40;;;;;;;49.22;26.27;;;;;;;-8.21;100.00;102768.66;5053891;28;20033;-73
2022/12/18 03:55:07;;;;;;;48.65;25.10;;;;;;;-8.32;100.00;102747.28;5053714;28;20436;-72
2022/12/18 03:57:33;;;;;;;45.92;25.27;;;;;;;-8.38;100.00;102745.38;5053834;28;20025;-73
2022/12/18 04:00:04;;;;;;;48.60;25.38;;;;;;;-8.32;100.00;102752.28;5053631;28;20028;-72
2022/12/18 04:02:32;;;;;;;51.90;26.77;;;;;;;-8.36;100.00;102742.94;5053637;28;20119;-73
2022/12/18 04:05:01;;;;;;;48.00;25.23;;;;;;;-8.22;100.00;102756.06;5053543;28;20036;-77
2022/12/18 04:07:27;;;;;;;46.40;24.98;;;;;;;-8.32;100.00;102739.75;5053863;28;20044;-73
2022/12/18 04:09:56;;;;;;;47.17;25.35;;;;;;;-8.21;100.00;102745.25;5053679;28;20025;-73
2022/12/18 04:12:25;;;;;;;49.72;26.95;;;;;;;-8.19;100.00;102741.16;5052111;28;20051;-72
2022/12/18 04:14:50;;;;;;;48.58;24.65;;;;;;;-8.18;100.00;102733.69;5053309;28;20029;-73
2022/12/18 04:17:16;;;;;;;46.47;26.05;;;;;;;-8.16;100.00;102732.13;5053388;28;20032;-73
2022/12/18 04:19:41;;;;;;;42.53;23.88;;;;;;;-8.35;100.00;102693.72;5053127;28;20045;-73
2022/12/18 04:22:09;;;;;;;47.75;26.13;;;;;;;-8.18;100.00;102735.34;5053462;28;20039;-74
2022/12/18 04:24:34;;;;;;;44.22;24.08;;;;;;;-8.21;100.00;102728.56;5053499;28;20358;-74
2022/12/18 04:26:59;;;;;;;42.72;24.63;;;;;;;-8.22;100.00;102720.97;5053209;28;20021;-74
2022/12/18 04:29:24;;;;;;;45.90;25.70;;;;;;;-8.19;100.00;102728.63;5053081;28;20032;-77
2022/12/18 04:31:50;;;;;;;42.92;23.30;;;;;;;-8.26;100.00;102729.97;5053331;28;20033;-72
2022/12/18 04:34:15;;;;;;;46.20;24.17;;;;;;;-8.21;100.00;102737.72;5053116;28;20048;-73
2022/12/18 04:36:40;;;;;;;45.33;24.85;;;;;;;-8.17;100.00;102742.06;5053488;28;20527;-84
2022/12/18 04:39:06;;;;;;;44.15;23.40;;;;;;;-8.20;100.00;102746.97;5053253;28;20040;-76
2022/12/18 04:41:31;;;;;;;41.35;23.73;;;;;;;-8.26;100.00;102749.19;5052863;28;20036;-77
2022/12/18 04:43:56;;;;;;;41.03;23.33;;;;;;;-8.30;100.00;102755.72;5053184;28;20107;-76
2022/12/18 04:46:22;;;;;;;42.97;22.98;;;;;;;-8.40;100.00;102754.47;5052978;28;20063;-78
2022/12/18 04:48:47;;;;;;;42.20;23.52;;;;;;;-8.50;100.00;102741.47;5053137;28;20091;-74
2022/12/18 04:51:12;;;;;;;39.70;23.05;;;;;;;-8.55;100.00;102743.78;5052960;28;20024;-73
2022/12/18 04:53:38;;;;;;;45.10;25.33;;;;;;;-8.83;100.00;102694.06;5052950;28;20021;-78
2022/12/18 04:56:10;;;;;;;44.60;25.85;;;;;;;-8.43;100.00;102769.38;5052030;28;20064;-80
2022/12/18 04:58:36;;;;;;;42.45;23.55;;;;;;;-8.54;100.00;102763.03;5053083;28;20067;-82
2022/12/18 05:01:01;;;;;;;40.65;24.25;;;;;;;-8.47;100.00;102780.03;5051749;28;20148;-78
2022/12/18 05:03:27;;;;;;;40.50;23.70;;;;;;;-8.46;100.00;102776.72;5052993;28;20071;-73
2022/12/18 05:05:52;;;;;;;40.85;22.88;;;;;;;-8.53;100.00;102769.75;5052944;28;20048;-72
2022/12/18 05:08:18;;;;;;;36.13;21.87;;;;;;;-8.51;100.00;102783.19;5052895;28;20067;-73
2022/12/18 05:10:43;;;;;;;43.55;23.13;;;;;;;-8.53;100.00;102781.41;5053154;28;20028;-76
2022/12/18 05:13:08;;;;;;;39.78;23.05;;;;;;;-8.60;100.00;102774.38;5053230;28;20032;-87
2022/12/18 05:15:34;;;;;;;42.22;23.52;;;;;;;-8.63;100.00;102772.59;5053347;28;20031;-88
2022/12/18 05:18:00;;;;;;;39.05;21.95;;;;;;;-8.77;100.00;102748.56;5053356;28;20025;-88
2022/12/18 05:20:27;;;;;;;39.65;21.77;;;;;;;-8.58;100.00;102790.34;5052772;28;20037;-86
2022/12/18 05:22:52;;;;;;;36.85;21.52;;;;;;;-8.64;100.00;102775.91;5053200;28;20029;-87
2022/12/18 05:25:18;;;;;;;38.00;21.30;;;;;;;-8.60;100.00;102786.91;5052810;28;20039;-87
2022/12/18 05:27:43;;;;;;;41.65;22.33;;;;;;;-8.69;100.00;102770.66;5052805;28;20021;-86
2022/12/18 05:30:09;;;;;;;38.28;21.48;;;;;;;-8.64;100.00;102768.38;5052754;28;20040;-86
2022/12/18 05:32:35;;;;;;;37.55;21.10;;;;;;;-8.77;100.00;102746.03;5052618;28;20083;-88
2022/12/18 05:35:00;;;;;;;36.13;21.42;;;;;;;-8.76;100.00;102745.25;5052623;28;20033;-86
2022/12/18 05:37:25;;;;;;;33.33;20.27;;;;;;;-8.65;100.00;102773.28;5052586;28;20056;-88
2022/12/18 05:39:51;;;;;;;33.10;18.70;;;;;;;-8.67;100.00;102785.75;5052923;28;20522;-87
2022/12/18 05:42:16;;;;;;;38.87;21.40;;;;;;;-8.70;100.00;102773.97;5052951;28;20043;-88
2022/12/18 05:44:43;;;;;;;36.67;20.60;;;;;;;-8.72;100.00;102773.03;5052630;28;20387;-87
2022/12/18 05:47:08;;;;;;;36.40;19.42;;;;;;;-8.86;100.00;102748.13;5052494;28;20502;-88
2022/12/18 05:49:34;;;;;;;37.65;20.92;;;;;;;-8.72;100.00;102762.16;5052913;28;20112;-87
2022/12/18 05:51:59;;;;;;;37.15;20.05;;;;;;;-8.75;100.00;102741.97;5052418;28;20104;-88
2022/12/18 05:54:27;;;;;;;39.13;19.92;;;;;;;-8.65;100.00;102745.75;5055965;28;20423;-86
2022/12/18 05:56:52;;;;;;;34.55;20.23;;;;;;;-8.85;100.00;102710.63;5056753;28;20029;-88
2022/12/18 05:59:17;;;;;;;33.75;20.40;;;;;;;-8.71;100.00;102737.19;5056222;28;20099;-88
2022/12/18 06:01:43;;;;;;;36.85;20.98;;;;;;;-8.74;100.00;102731.19;5056003;28;20112;-86
2022/12/18 06:04:08;;;;;;;35.60;19.80;;;;;;;-8.66;100.00;102747.41;5055793;28;20025;-88
2022/12/18 06:06:33;;;;;;;36.03;19.17;;;;;;;-8.65;100.00;102745.75;5054937;28;20045;-88
2022/12/18 06:08:59;;;;;;;38.85;21.27;;;;;;;-8.61;100.00;102745.97;5055746;28;20028;-85
2022/12/18 06:11:26;;;;;;;38.87;21.00;;;;;;;-8.60;100.00;102735.16;5055971;28;20052;-74
2022/12/18 06:13:53;;;;;;;36.00;19.15;;;;;;;-8.53;100.00;102731.31;5055790;28;20036;-76
2022/12/18 06:16:18;;;;;;;36.42;19.05;;;;;;;-8.53;100.00;102736.31;5055746;28;20425;-73
2022/12/18 06:18:43;;;;;;;36.47;19.25;;;;;;;-8.51;100.00;102734.75;5055590;28;20032;-75
2022/12/18 06:21:09;;;;;;;35.42;18.58;;;;;;;-8.49;100.00;102736.50;5055324;28;20132;-73
2022/12/18 06:23:35;;;;;;;38.45;22.25;;;;;;;-8.47;100.00;102742.44;5055521;28;20060;-73
2022/12/18 06:26:06;;;;;;;35.30;20.38;;;;;;;-8.54;100.00;102737.97;5055622;28;20024;-73
2022/12/18 06:28:31;;;;;;;39.90;23.00;;;;;;;-8.45;100.00;102750.06;5055767;28;20032;-74
2022/12/18 06:30:57;;;;;;;36.67;22.40;;;;;;;-8.47;100.00;102749.09;5055508;28;20402;-73
2022/12/18 06:33:28;;;;;;;40.00;21.73;;;;;;;-8.62;100.00;102734.25;5055018;28;20103;-74
2022/12/18 06:35:54;;;;;;;35.65;21.70;;;;;;;-8.47;100.00;102741.59;5055489;28;20025;-74
2022/12/18 06:38:20;;;;;;;39.38;22.92;;;;;;;-8.48;100.00;102745.75;5055236;28;20033;-73
2022/12/18 06:40:45;;;;;;;37.85;21.70;;;;;;;-8.64;100.00;102715.78;5055400;28;20108;-72
2022/12/18 06:43:10;;;;;;;35.88;20.52;;;;;;;-8.73;100.00;102707.88;5055275;28;20024;-72
2022/12/18 06:45:36;;;;;;;35.00;21.58;;;;;;;-8.59;100.00;102738.53;5055237;28;20025;-72
2022/12/18 06:48:01;;;;;;;39.63;22.48;;;;;;;-8.96;100.00;102676.75;5054956;28;20025;-72
2022/12/18 06:50:27;;;;;;;39.03;22.30;;;;;;;-8.72;100.00;102732.13;5055256;28;20079;-72
2022/12/18 06:52:52;;;;;;;34.30;20.23;;;;;;;-8.85;100.00;102708.13;5055269;28;20461;-72
2022/12/18 06:55:17;;;;;;;36.97;21.42;;;;;;;-8.90;100.00;102711.22;5054856;28;20037;-72
2022/12/18 06:57:43;;;;;;;37.83;22.63;;;;;;;-8.88;100.00;102715.50;5055154;28;20032;-72
2022/12/18 07:00:09;;;;;;;38.13;21.85;;;;;;;-8.82;100.00;102725.81;5054772;28;20033;-72
2022/12/18 07:02:34;;;;;;;39.03;22.87;;;;;;;-9.12;100.00;102680.19;5054711;28;20037;-74
2022/12/18 07:05:00;;;;;;;36.42;23.00;;;;;;;-9.06;100.00;102687.13;5054619;28;20033;-75
2022/12/18 07:07:25;;;;;;;39.55;23.08;;;;;;;-8.86;100.00;102721.44;5054933;28;20946;-73
2022/12/18 07:09:51;;;;;;;42.10;24.13;;;;;;;-8.91;100.00;102704.50;5054623;28;20068;-75
2022/12/18 07:12:16;;;;;;;42.45;23.25;;;;;;;-8.80;100.00;102714.22;5054996;28;20116;-76
2022/12/18 07:14:42;;;;;;;39.22;22.65;;;;;;;-8.83;100.00;102706.59;5054891;28;20029;-85
2022/12/18 07:17:07;;;;;;;39.00;22.20;;;;;;;-8.87;100.00;102691.34;5054394;28;20029;-74
2022/12/18 07:19:33;;;;;;;36.65;22.02;;;;;;;-8.75;100.00;102700.28;5054242;28;20104;-76
2022/12/18 07:21:58;;;;;;;38.13;20.85;;;;;;;-8.85;100.00;102668.06;5054557;28;20059;-79
2022/12/18 07:24:24;;;;;;;43.50;23.63;;;;;;;-8.70;100.00;102690.47;5054377;28;20037;-80
2022/12/18 07:26:49;;;;;;;43.75;22.50;;;;;;;-8.62;100.00;102688.31;5054405;28;20025;-75
2022/12/18 07:29:15;;;;;;;42.22;23.02;;;;;;;-8.59;100.00;102679.28;5054453;28;20017;-77
2022/12/18 07:31:40;;;;;;;42.03;24.45;;;;;;;-8.60;100.00;102675.06;5054408;28;20029;-74
2022/12/18 07:34:10;;;;;;;44.03;24.67;;;;;;;-8.67;100.00;102643.03;5054076;28;20033;-75
2022/12/18 07:36:36;;;;;;;46.60;27.13;;;;;;;-8.63;100.00;102634.00;5054627;28;20029;-78
2022/12/18 07:39:01;;;;;;;47.53;26.80;;;;;;;-8.45;100.00;102662.38;5052945;28;20029;-74
2022/12/18 07:41:26;;;;;;;42.67;26.27;;;;;;;-8.41;100.00;102662.56;5054081;28;20125;-75
2022/12/18 07:43:51;;;;;;;41.35;24.20;;;;;;;-8.34;100.00;102665.34;5053905;28;20151;-78
2022/12/18 07:46:17;;;;;;;44.25;24.75;;;;;;;-8.28;100.00;102656.41;5053996;28;20033;-75
2022/12/18 07:48:44;;;;;;;44.75;26.00;;;;;;;-8.20;100.00;102644.22;5052645;28;20033;-79
2022/12/18 07:51:09;;;;;;;45.45;28.67;;;;;;;-8.13;100.00;102646.19;5053848;28;20029;-74
2022/12/18 07:53:35;;;;;;;44.22;24.73;;;;;;;-8.22;100.00;102603.19;5053919;28;20036;-76
2022/12/18 07:56:05;;;;;;;41.60;25.42;;;;;;;-7.99;100.00;102620.03;5053641;28;20107;-82
2022/12/18 07:58:31;;;;;;;43.25;25.98;;;;;;;-7.94;100.00;102620.25;5053756;28;20464;-74
2022/12/18 08:01:22;;;;;;;46.45;26.40;;;;;;;-7.85;100.00;102631.50;5053745;28;20032;-77
2022/12/18 08:03:47;;;;;;;44.25;25.25;;;;;;;-7.78;100.00;102626.72;5051412;28;20040;-77
2022/12/18 08:06:13;;;;;;;47.10;25.83;;;;;;;-7.65;100.00;102628.97;5053675;28;20028;-80
2022/12/18 08:08:40;;;;;;;41.15;22.95;;;;;;;-7.73;100.00;102606.06;5053521;28;20048;-82
2022/12/18 08:11:05;;;;;;;43.25;24.45;;;;;;;-7.45;100.00;102638.13;5046766;28;20018;-74
2022/12/18 08:13:31;;;;;;;44.92;25.17;;;;;;;-7.39;100.00;102640.88;5053754;28;20025;-73
2022/12/18 08:15:57;;;;;;;42.65;25.17;;;;;;;-7.30;100.00;102642.88;5052998;28;20043;-74
2022/12/18 08:18:22;;;;;;;44.95;24.17;;;;;;;-7.24;100.00;102643.13;5053292;28;20468;-75
2022/12/18 08:20:48;;;;;;;40.90;24.05;;;;;;;-7.17;100.00;102644.25;5053164;28;20099;-75
2022/12/18 08:23:13;;;;;;;41.10;23.50;;;;;;;-7.12;100.00;102650.28;5053429;28;20025;-80
2022/12/18 08:25:38;;;;;;;44.50;24.48;;;;;;;-7.08;100.00;102655.50;5053029;28;20033;-77
2022/12/18 08:28:04;;;;;;;39.83;23.17;;;;;;;-7.02;100.00;102657.38;5052001;28;20029;-73
2022/12/18 08:30:29;;;;;;;41.53;25.05;;;;;;;-6.98;100.00;102654.16;5053431;28;20041;-76
2022/12/18 08:32:54;;;;;;;42.95;23.98;;;;;;;-6.91;100.00;102647.72;5053224;28;20116;-78
2022/12/18 08:35:21;;;;;;;39.47;22.83;;;;;;;-6.87;100.00;102650.44;5052871;28;20057;-80
2022/12/18 08:37:46;;;;;;;42.10;25.88;;;;;;;-6.82;100.00;102656.47;5053140;28;20435;-80
2022/12/18 08:40:12;;;;;;;42.60;24.95;;;;;;;-6.93;100.00;102625.06;5052849;28;20048;-78
2022/12/18 08:45:21;;;;;;;44.22;22.13;;;;;;;-6.72;100.00;102630.88;5053190;28;20094;-80
2022/12/18 08:47:47;;;;;;;44.55;23.70;;;;;;;-6.69;100.00;102628.47;5053109;28;20032;-79
2022/12/18 08:50:12;;;;;;;41.40;24.17;;;;;;;-6.67;100.00;102619.38;5052927;28;20021;-79
2022/12/18 08:52:37;;;;;;;44.10;25.05;;;;;;;-6.60;100.00;102612.88;5052780;28;20075;-76
2022/12/18 08:55:03;;;;;;;39.03;22.70;;;;;;;-6.55;100.00;102615.56;5053126;28;20090;-85
2022/12/18 08:57:29;;;;;;;45.22;25.40;;;;;;;-6.52;100.00;102615.69;5053107;28;20033;-85
2022/12/18 08:59:54;;;;;;;43.88;25.67;;;;;;;-6.40;100.00;102619.47;5053273;28;20090;-81
2022/12/18 09:02:19;;;;;;;50.17;27.83;;;;;;;-6.33;100.00;102610.50;5053107;28;20033;-84
2022/12/18 09:04:47;;;;;;;49.15;27.80;;;;;;;-6.25;100.00;102611.63;5052816;28;20094;-83
2022/12/18 09:07:12;;;;;;;43.25;25.25;;;;;;;-6.17;100.00;102619.44;5052798;28;20029;-84
2022/12/18 09:09:38;;;;;;;43.60;25.40;;;;;;;-6.11;100.00;102615.44;5052641;28;20033;-83
2022/12/18 09:12:03;;;;;;;41.55;23.27;;;;;;;-6.06;100.00;102615.63;5052829;28;20350;-84
2022/12/18 09:14:28;;;;;;;42.17;23.83;;;;;;;-6.01;100.00;102605.69;5052564;28;20400;-83
2022/12/18 09:16:54;;;;;;;42.25;24.48;;;;;;;-5.88;100.00;102623.75;5052727;28;20036;-84
2022/12/18 09:19:19;;;;;;;40.47;23.13;;;;;;;-5.83;100.00;102622.22;5052489;28;20032;-83
2022/12/18 09:21:44;;;;;;;42.17;23.08;;;;;;;-5.92;100.00;102606.88;5052210;28;20068;-83
2022/12/18 09:24:13;;;;;;;39.25;23.52;;;;;;;-5.76;100.00;102633.38;5052577;28;20547;-85
2022/12/18 09:26:38;;;;;;;37.70;22.48;;;;;;;-5.79;100.00;102620.69;5053816;28;20032;-84
2022/12/18 09:29:04;;;;;;;43.38;23.85;;;;;;;-5.55;100.00;102651.66;5056799;28;20033;-83
2022/12/18 09:31:29;;;;;;;41.90;23.02;;;;;;;-5.61;100.00;102626.28;5056407;28;20090;-84
2022/12/18 09:33:56;;;;;;;42.30;21.90;;;;;;;-5.44;100.00;102641.09;5056353;28;20089;-84
2022/12/18 09:36:21;;;;;;;38.17;22.77;;;;;;;-5.46;100.00;102620.91;5056218;28;20104;-82
2022/12/18 09:38:47;;;;;;;43.47;24.25;;;;;;;-5.43;100.00;102603.38;5056238;28;20483;-81
2022/12/18 09:41:30;;;;;;;39.88;22.42;;;;;;;-5.27;100.00;102612.25;5056193;28;20140;-83
2022/12/18 09:44:01;;;;;;;38.05;22.67;;;;;;;-5.21;100.00;102608.28;5056433;28;20400;-84
2022/12/18 09:46:30;;;;;;;40.37;23.57;;;;;;;-5.13;100.00;102597.56;5056400;28;20048;-89
2022/12/18 09:49:01;;;;;;;39.63;22.60;;;;;;;-5.07;100.00;102591.03;5056110;28;20039;-89
2022/12/18 09:51:33;;;;;;;41.87;25.53;;;;;;;-5.06;100.00;102585.19;5055943;28;20033;-85
2022/12/18 09:54:04;;;;;;;38.17;24.42;;;;;;;-4.90;100.00;102594.06;5056118;28;20496;-85
2022/12/18 09:56:34;;;;;;;44.05;22.67;;;;;;;-4.89;100.00;102563.00;5055100;28;20041;-88
2022/12/18 09:59:01;;;;;;;37.40;22.27;;;;;;;-4.75;100.00;102568.44;5056029;28;20025;-85
2022/12/18 10:01:28;;;;;;;36.13;23.35;;;;;;;-4.63;100.00;102571.28;5055946;28;20473;-87
2022/12/18 10:03:54;;;;;;;36.88;22.60;;;;;;;-4.68;100.00;102556.03;5055684;28;20036;-85
2022/12/18 10:06:26;;;;;;;38.85;23.15;;;;;;;-4.48;100.00;102591.88;5055539;28;20104;-72
2022/12/18 10:09:05;;;;;;;38.17;22.20;;;;;;;-4.39;100.00;102597.16;5056153;28;20029;-76
2022/12/18 10:11:47;;;;;;;37.47;22.42;;;;;;;-4.48;100.00;102556.59;5055840;28;20025;-75
2022/12/18 10:14:31;;;;;;;37.50;22.25;;;;;;;-4.20;100.00;102596.00;5055578;28;20021;-82
2022/12/18 10:17:13;;;;;;;37.08;23.63;;;;;;;-4.12;100.00;102586.09;5055423;28;20029;-85
2022/12/18 10:19:57;;;;;;;35.47;21.63;;;;;;;-4.07;100.00;102587.06;5055530;28;20480;-83
2022/12/18 10:23:00;;;;;;;39.67;22.58;;;;;;;-3.96;100.00;102580.59;5055351;28;20044;-82
2022/12/18 10:25:33;;;;;;;36.97;21.20;;;;;;;-3.86;99.68;102590.13;5055489;28;20036;-77
2022/12/18 10:28:12;;;;;;;36.38;20.48;;;;;;;-4.00;99.45;102548.56;5055537;28;20402;-79
2022/12/18 10:30:50;;;;;;;34.67;21.05;;;;;;;-3.80;99.18;102562.50;5055179;28;20028;-80
2022/12/18 10:33:18;;;;;;;33.63;20.38;;;;;;;-3.65;98.90;102571.25;5055035;28;20036;-81
2022/12/18 10:35:45;;;;;;;35.38;21.70;;;;;;;-3.63;97.93;102565.44;5055120;28;20056;-80
2022/12/18 10:38:13;;;;;;;35.53;21.08;;;;;;;-3.58;97.82;102560.47;5054591;28;20473;-80
2022/12/18 10:40:55;;;;;;;37.95;22.05;;;;;;;-3.72;98.52;102527.34;5055022;28;20032;-80
2022/12/18 10:43:25;;;;;;;36.78;21.55;;;;;;;-3.42;97.94;102544.88;5055076;28;20047;-79
2022/12/18 10:46:01;;;;;;;33.08;20.10;;;;;;;-3.35;97.92;102535.72;5054999;28;20021;-76
2022/12/18 10:48:27;;;;;;;36.22;20.73;;;;;;;-3.31;97.26;102533.31;5055153;28;20036;-81
2022/12/18 10:50:53;;;;;;;33.33;20.10;;;;;;;-3.39;97.09;102509.56;5055118;28;20029;-79
2022/12/18 10:53:24;;;;;;;36.63;22.38;;;;;;;-3.22;96.70;102525.94;5055108;28;20373;-79
2022/12/18 10:55:58;;;;;;;39.33;21.65;;;;;;;-3.24;97.09;102512.44;5055012;28;20032;-80
2022/12/18 10:58:28;;;;;;;34.70;20.85;;;;;;;-3.39;96.43;102466.63;5053697;28;20388;-76
2022/12/18 11:01:06;;;;;;;35.30;21.17;;;;;;;-3.03;96.18;102513.69;5054916;28;20051;-79
2022/12/18 11:04:05;;;;;;;36.45;20.80;;;;;;;-3.25;95.64;102482.91;5054939;28;20029;-81
2022/12/18 11:06:33;;;;;;;38.22;20.80;;;;;;;-2.97;95.43;102509.59;5032517;28;20176;-81
2022/12/18 11:09:18;;;;;;;34.40;20.65;;;;;;;-2.98;95.80;102491.88;5032743;28;20046;-81
2022/12/18 11:11:49;;;;;;;35.95;20.23;;;;;;;-2.88;94.83;102509.75;5032787;28;20041;-79
2022/12/18 11:14:22;;;;;;;35.42;20.05;;;;;;;-2.85;94.78;102510.63;5032363;28;20033;-80